createdAt,value
2019-01-24T00:01:03.471Z,99969.15
2019-01-24T00:03:30.442Z,99966.69
2019-01-24T00:05:57.542Z,99978.70
2019-01-24T00:08:24.496Z,99973.09
2019-01-24T00:10:51.422Z,99925.67
2019-01-24T00:13:18.377Z,99980.63
2019-01-24T00:15:45.294Z,99981.69
2019-01-24T00:18:12.298Z,99989.03
2019-01-24T00:20:39.271Z,100000.40
2019-01-24T00:23:06.205Z,100000.40
2019-01-24T00:25:33.134Z,99994.77
2019-01-24T00:28:00.080Z,100005.16
2019-01-24T00:30:27.008Z,100009.44
2019-01-24T00:32:53.931Z,100009.44
2019-01-24T00:35:20.866Z,100002.30
2019-01-24T00:37:47.825Z,100014.71
2019-01-24T00:40:16.082Z,100014.71
2019-01-24T00:42:43.047Z,100016.66
2019-01-24T00:45:10.278Z,100013.67
2019-01-24T00:47:37.251Z,100019.30
2019-01-24T00:50:05.384Z,100019.30
2019-01-24T00:52:32.469Z,100021.33
2019-01-24T00:54:59.380Z,100021.33
2019-01-24T00:57:26.349Z,100023.14
2019-01-24T00:59:53.297Z,100023.14
2019-01-24T01:02:20.251Z,100021.48
2019-01-24T01:04:47.164Z,100021.48
2019-01-24T01:07:14.131Z,100026.58
2019-01-24T01:09:41.119Z,100026.58
2019-01-24T01:12:08.025Z,100014.69
2019-01-24T01:14:34.977Z,100023.30
2019-01-24T01:17:01.931Z,100038.56
2019-01-24T01:19:28.871Z,100038.56
2019-01-24T01:21:55.794Z,100029.55
2019-01-24T01:24:22.749Z,100041.68
2019-01-24T01:26:49.675Z,100047.84
2019-01-24T01:29:16.630Z,100052.50
2019-01-24T01:31:43.565Z,100052.50
2019-01-24T01:34:10.510Z,100054.98
2019-01-24T01:36:37.445Z,100057.95
2019-01-24T01:39:07.047Z,100057.28
2019-01-24T01:41:33.983Z,100052.09
2019-01-24T01:44:00.939Z,100065.37
2019-01-24T01:46:27.878Z,100065.37
2019-01-24T01:48:54.820Z,100067.19
2019-01-24T01:51:21.742Z,100070.86
2019-01-24T01:53:48.710Z,100075.66
2019-01-24T01:56:15.634Z,100080.11
2019-01-24T01:58:42.558Z,100081.48
2019-01-24T02:01:09.576Z,100081.42
2019-01-24T02:03:36.551Z,100086.14
2019-01-24T02:06:03.727Z,100082.22
2019-01-24T02:08:30.692Z,100092.39
2019-01-24T02:10:57.601Z,100087.41
2019-01-24T02:13:24.550Z,100097.58
2019-01-24T02:15:51.494Z,100091.53
2019-01-24T02:18:18.601Z,100087.27
2019-01-24T02:20:45.548Z,100092.56
2019-01-24T02:23:12.606Z,100095.69
2019-01-24T02:25:39.612Z,100093.86
2019-01-24T02:28:06.531Z,100093.33
2019-01-24T02:30:33.546Z,100097.00
2019-01-24T02:33:00.471Z,100097.00
2019-01-24T02:35:27.432Z,100092.55
2019-01-24T02:37:54.382Z,100096.17
2019-01-24T02:40:21.343Z,100100.42
2019-01-24T02:42:48.266Z,100100.42
2019-01-24T02:45:16.549Z,100099.72
2019-01-24T02:47:43.517Z,100099.72
2019-01-24T02:50:12.666Z,100109.73
2019-01-24T02:52:39.612Z,100104.67
2019-01-24T02:55:08.399Z,100111.48
2019-01-24T02:57:35.317Z,100112.31
2019-01-24T03:00:02.794Z,100112.70
2019-01-24T03:02:29.696Z,100106.19
2019-01-24T03:04:57.223Z,100101.50
2019-01-24T03:07:24.271Z,100105.92
2019-01-24T03:09:51.251Z,100104.25
2019-01-24T03:12:18.198Z,100100.55
2019-01-24T03:14:45.143Z,100090.45
2019-01-24T03:17:12.117Z,100104.08
2019-01-24T03:19:39.068Z,100105.44
2019-01-24T03:22:05.986Z,100049.15
2019-01-24T03:24:32.947Z,100109.65
2019-01-24T03:26:59.876Z,100115.22
2019-01-24T03:29:26.826Z,100114.92
2019-01-24T03:31:53.777Z,100119.27
2019-01-24T03:34:20.789Z,100115.30
2019-01-24T03:36:47.729Z,100124.84
2019-01-24T03:39:14.683Z,100125.44
2019-01-24T03:41:41.686Z,100128.33
2019-01-24T03:44:08.634Z,100128.82
2019-01-24T03:46:35.645Z,100130.11
2019-01-24T03:49:02.572Z,100128.75
2019-01-24T03:51:29.530Z,100137.56
2019-01-24T03:53:56.463Z,100136.93
2019-01-24T03:56:23.430Z,100137.09
2019-01-24T03:58:50.367Z,100133.72
2019-01-24T04:01:17.339Z,100137.04
2019-01-24T04:03:44.271Z,100136.54
2019-01-24T04:06:11.278Z,100130.55
2019-01-24T04:08:38.208Z,100131.27
2019-01-24T04:11:05.181Z,100128.27
2019-01-24T04:13:32.135Z,100124.47
2019-01-24T04:15:59.130Z,100129.08
2019-01-24T04:18:26.047Z,100133.16
2019-01-24T04:20:53.029Z,100139.26
2019-01-24T04:23:19.984Z,100137.03
2019-01-24T04:25:46.964Z,100132.29
2019-01-24T04:28:13.903Z,100134.01
2019-01-24T04:30:40.873Z,100136.45
2019-01-24T04:33:07.814Z,100140.80
2019-01-24T04:35:34.838Z,100144.73
2019-01-24T04:38:01.761Z,100142.52
2019-01-24T04:40:28.791Z,100137.91
2019-01-24T04:42:55.707Z,100145.45
2019-01-24T04:45:22.683Z,100142.77
2019-01-24T04:47:49.591Z,100136.78
2019-01-24T04:50:17.501Z,100143.27
2019-01-24T04:52:44.442Z,100146.31
2019-01-24T04:55:12.896Z,100145.06
2019-01-24T04:57:39.839Z,100151.25
2019-01-24T05:00:13.856Z,100150.24
2019-01-24T05:02:40.779Z,100149.30
2019-01-24T05:05:07.744Z,100155.25
2019-01-24T05:07:34.698Z,100154.59
2019-01-24T05:10:02.419Z,100153.38
2019-01-24T05:12:29.510Z,100159.59
2019-01-24T05:14:56.435Z,100163.68
2019-01-24T05:17:23.555Z,100170.06
2019-01-24T05:19:50.543Z,100174.86
2019-01-24T05:22:17.595Z,100176.45
2019-01-24T05:24:44.542Z,100176.55
2019-01-24T05:27:11.500Z,100180.05
2019-01-24T05:29:38.418Z,100185.82
2019-01-24T05:32:05.801Z,100178.33
2019-01-24T05:34:32.759Z,100184.27
2019-01-24T05:36:59.729Z,100182.72
2019-01-24T05:39:26.674Z,100183.19
2019-01-24T05:41:53.655Z,100196.55
2019-01-24T05:44:20.596Z,100193.48
2019-01-24T05:46:47.588Z,100196.11
2019-01-24T05:49:14.527Z,100202.60
2019-01-24T05:51:41.481Z,100208.98
2019-01-24T05:54:08.396Z,100201.53
2019-01-24T05:56:35.460Z,100200.86
2019-01-24T05:59:02.387Z,100202.58
2019-01-24T06:01:29.773Z,100209.70
2019-01-24T06:03:56.689Z,100208.88
2019-01-24T06:06:23.691Z,100223.44
2019-01-24T06:08:50.599Z,100217.61
2019-01-24T06:11:17.566Z,100217.81
2019-01-24T06:13:44.527Z,100220.47
2019-01-24T06:16:11.496Z,100222.72
2019-01-24T06:18:38.522Z,100220.89
2019-01-24T06:21:05.486Z,100215.67
2019-01-24T06:23:32.461Z,100219.17
2019-01-24T06:25:59.426Z,100220.75
2019-01-24T06:28:26.347Z,100199.48
2019-01-24T06:30:53.340Z,100243.53
2019-01-24T06:33:20.291Z,100241.23
2019-01-24T06:35:48.873Z,100239.16
2019-01-24T06:38:15.991Z,100240.51
2019-01-24T06:40:42.940Z,100242.67
2019-01-24T06:43:09.913Z,100246.16
2019-01-24T06:45:36.834Z,100245.66
2019-01-24T06:48:03.772Z,100253.97
2019-01-24T06:50:30.746Z,100252.44
2019-01-24T06:52:57.773Z,100251.08
2019-01-24T06:55:26.426Z,100254.58
2019-01-24T06:57:53.506Z,100257.21
2019-01-24T07:00:20.545Z,100258.98
2019-01-24T07:02:47.529Z,100258.47
2019-01-24T07:05:14.883Z,100268.78
2019-01-24T07:07:41.908Z,100271.23
2019-01-24T07:10:11.460Z,100277.97
2019-01-24T07:12:38.592Z,100271.67
2019-01-24T07:15:07.805Z,100271.92
2019-01-24T07:17:35.029Z,100274.50
2019-01-24T07:20:02.216Z,100279.45
2019-01-24T07:22:29.233Z,100282.41
2019-01-24T07:24:56.146Z,100280.11
2019-01-24T07:27:23.124Z,100285.91
2019-01-24T07:29:50.066Z,100289.22
2019-01-24T07:32:17.044Z,100305.84
2019-01-24T07:34:44.004Z,100309.89
2019-01-24T07:37:10.947Z,100309.31
2019-01-24T07:39:37.853Z,100308.51
2019-01-24T07:42:04.925Z,100308.51
2019-01-24T07:44:31.844Z,100313.17
2019-01-24T07:46:58.834Z,100305.42
2019-01-24T07:49:25.747Z,100316.17
2019-01-24T07:51:52.682Z,100318.73
2019-01-24T07:54:20.125Z,100322.95
2019-01-24T07:56:47.052Z,100326.80
2019-01-24T07:59:14.068Z,100336.86
2019-01-24T08:01:40.998Z,100340.23
2019-01-24T08:04:07.948Z,100347.61
2019-01-24T08:06:34.894Z,100350.95
2019-01-24T08:09:01.864Z,100360.91
2019-01-24T08:11:28.877Z,100366.03
2019-01-24T08:13:55.833Z,100363.97
2019-01-24T08:16:22.767Z,100368.72
2019-01-24T08:18:50.035Z,100366.79
2019-01-24T08:21:17.018Z,100370.02
2019-01-24T08:23:43.971Z,100371.33
2019-01-24T08:26:10.886Z,100375.73
2019-01-24T08:28:37.942Z,100375.09
2019-01-24T08:31:04.890Z,100372.70
2019-01-24T08:33:31.872Z,100376.63
2019-01-24T08:35:58.829Z,100379.19
2019-01-24T08:38:25.791Z,100376.05
2019-01-24T08:40:52.719Z,100373.53
2019-01-24T08:43:19.674Z,100373.44
2019-01-24T08:45:46.648Z,100367.80
2019-01-24T08:48:13.663Z,100370.71
2019-01-24T08:50:40.620Z,100375.25
2019-01-24T08:53:07.899Z,100376.53
2019-01-24T08:55:37.629Z,100377.03
2019-01-24T08:58:05.144Z,100388.77
2019-01-24T09:00:32.924Z,100383.11
2019-01-24T09:02:59.858Z,100379.64
2019-01-24T09:05:26.918Z,100381.73
2019-01-24T09:07:53.895Z,100380.59
2019-01-24T09:10:23.033Z,100394.88
2019-01-24T09:12:49.940Z,100397.84
2019-01-24T09:15:16.973Z,100396.15
2019-01-24T09:17:43.893Z,100404.99
2019-01-24T09:20:12.371Z,100406.55
2019-01-24T09:22:39.469Z,100402.77
2019-01-24T09:25:06.638Z,100400.31
2019-01-24T09:27:33.913Z,100403.23
2019-01-24T09:30:00.981Z,100407.96
2019-01-24T09:32:27.952Z,100405.20
2019-01-24T09:34:55.086Z,100411.88
2019-01-24T09:37:22.010Z,100418.91
2019-01-24T09:39:48.951Z,100417.20
2019-01-24T09:42:15.860Z,100422.45
2019-01-24T09:44:42.877Z,100429.84
2019-01-24T09:47:09.820Z,100426.89
2019-01-24T09:49:36.773Z,100421.69
2019-01-24T09:52:03.717Z,100421.69
2019-01-24T09:54:30.662Z,100428.86
2019-01-24T09:56:57.685Z,100427.48
2019-01-24T09:59:24.712Z,100432.48
2019-01-24T10:01:51.670Z,100433.66
2019-01-24T10:04:18.620Z,100437.44
2019-01-24T10:06:45.600Z,100430.83
2019-01-24T10:09:12.577Z,100439.45
2019-01-24T10:11:39.489Z,100440.86
2019-01-24T10:14:06.452Z,100439.16
2019-01-24T10:16:33.371Z,100446.13
2019-01-24T10:19:00.421Z,100442.99
2019-01-24T10:21:27.346Z,100441.80
2019-01-24T10:23:54.316Z,100443.56
2019-01-24T10:26:21.257Z,100438.66
2019-01-24T10:28:48.193Z,100434.45
2019-01-24T10:31:15.181Z,100440.05
2019-01-24T10:33:42.122Z,100434.91
2019-01-24T10:36:09.110Z,100428.21
2019-01-24T10:38:36.049Z,100422.57
2019-01-24T10:41:03.291Z,100425.55
2019-01-24T10:43:30.216Z,100430.88
2019-01-24T10:45:57.193Z,100418.51
2019-01-24T10:48:24.105Z,100424.30
2019-01-24T10:50:51.081Z,100427.33
2019-01-24T10:53:18.021Z,100430.41
2019-01-24T10:55:44.970Z,100428.72
2019-01-24T10:58:11.894Z,100425.32
2019-01-24T11:00:40.560Z,100430.41
2019-01-24T11:03:09.961Z,100434.80
2019-01-24T11:05:36.900Z,100347.75
2019-01-24T11:08:04.417Z,100429.17
2019-01-24T11:10:31.811Z,100422.25
2019-01-24T11:12:58.749Z,100424.25
2019-01-24T11:15:26.115Z,100418.28
2019-01-24T11:17:53.165Z,100418.19
2019-01-24T11:20:20.390Z,100417.23
2019-01-24T11:22:47.573Z,100412.03
2019-01-24T11:25:16.151Z,100418.73
2019-01-24T11:27:43.186Z,100417.72
2019-01-24T11:30:12.896Z,100415.44
2019-01-24T11:32:39.814Z,100413.52
2019-01-24T11:35:09.660Z,100414.00
2019-01-24T11:37:36.627Z,100410.63
2019-01-24T11:40:04.868Z,100400.33
2019-01-24T11:42:31.883Z,100408.36
2019-01-24T11:44:58.796Z,100404.88
2019-01-24T11:47:25.767Z,100398.96
2019-01-24T11:49:52.695Z,100401.20
2019-01-24T11:52:19.667Z,100398.55
2019-01-24T11:54:46.612Z,100405.20
2019-01-24T11:57:13.620Z,100408.17
2019-01-24T11:59:40.876Z,100407.52
2019-01-24T12:02:08.086Z,100401.36
2019-01-24T12:04:35.037Z,100406.56
2019-01-24T12:07:04.164Z,100405.56
2019-01-24T12:09:30.867Z,100403.23
2019-01-24T12:11:57.821Z,100406.24
2019-01-24T12:14:24.785Z,100408.03
2019-01-24T12:16:51.753Z,100405.96
2019-01-24T12:19:18.792Z,100406.16
2019-01-24T12:21:46.885Z,100404.02
2019-01-24T12:24:13.887Z,100412.11
2019-01-24T12:26:40.833Z,100410.08
2019-01-24T12:29:07.813Z,100402.20
2019-01-24T12:31:34.757Z,100407.94
2019-01-24T12:34:01.668Z,100411.86
2019-01-24T12:36:28.638Z,100417.63
2019-01-24T12:38:55.569Z,100417.55
2019-01-24T12:41:22.612Z,100411.33
2019-01-24T12:43:49.724Z,100404.92
2019-01-24T12:46:16.675Z,100414.64
2019-01-24T12:48:44.193Z,100416.49
2019-01-24T12:51:11.157Z,100422.95
2019-01-24T12:53:38.151Z,100361.73
2019-01-24T12:56:05.120Z,100434.80
2019-01-24T12:58:32.019Z,100433.70
2019-01-24T13:00:59.203Z,100431.27
2019-01-24T13:03:26.241Z,100429.77
2019-01-24T13:05:53.192Z,100427.55
2019-01-24T13:08:20.184Z,100428.92
2019-01-24T13:10:47.291Z,100433.70
2019-01-24T13:13:14.231Z,100428.80
2019-01-24T13:15:41.470Z,100434.20
2019-01-24T13:18:08.459Z,100433.00
2019-01-24T13:20:35.449Z,100440.25
2019-01-24T13:23:02.740Z,100431.46
2019-01-24T13:25:31.387Z,100430.45
2019-01-24T13:27:58.394Z,100437.62
2019-01-24T13:30:27.429Z,100438.02
2019-01-24T13:32:54.445Z,100444.33
2019-01-24T13:35:21.482Z,100443.33
2019-01-24T13:37:48.456Z,100439.73
2019-01-24T13:40:23.065Z,100442.70
2019-01-24T13:42:50.189Z,100447.75
2019-01-24T13:45:19.426Z,100447.77
2019-01-24T13:47:46.905Z,100440.93
2019-01-24T13:50:14.757Z,100441.17
2019-01-24T13:52:41.723Z,100441.70
2019-01-24T13:55:08.889Z,100430.37
2019-01-24T13:57:35.875Z,100431.11
2019-01-24T14:00:06.738Z,100431.88
2019-01-24T14:02:33.709Z,100438.36
2019-01-24T14:05:00.629Z,100439.30
2019-01-24T14:07:32.978Z,100438.33
2019-01-24T14:09:56.422Z,100448.42
2019-01-24T14:12:23.385Z,100452.34
2019-01-24T14:14:50.313Z,100440.33
2019-01-24T14:17:17.279Z,100441.28
2019-01-24T14:19:44.213Z,100447.47
2019-01-24T14:22:11.123Z,100450.24
2019-01-24T14:24:38.083Z,100455.44
2019-01-24T14:27:05.207Z,100458.39
2019-01-24T14:29:32.154Z,100458.28
2019-01-24T14:31:59.109Z,100450.39
2019-01-24T14:34:26.106Z,100450.55
2019-01-24T14:36:53.250Z,100462.03
2019-01-24T14:39:20.295Z,100466.67
2019-01-24T14:41:47.325Z,100470.11
2019-01-24T14:44:14.285Z,100464.56
2019-01-24T14:46:41.307Z,100462.36
2019-01-24T14:49:08.280Z,100465.25
2019-01-24T14:51:35.212Z,100464.34
2019-01-24T14:54:02.157Z,100457.14
2019-01-24T14:56:29.093Z,100467.23
2019-01-24T14:58:56.164Z,100469.78
2019-01-24T15:01:25.125Z,100465.95
2019-01-24T15:03:52.202Z,100474.48
2019-01-24T15:06:19.158Z,100480.29
2019-01-24T15:08:46.231Z,100477.59
2019-01-24T15:11:13.214Z,100483.63
2019-01-24T15:13:40.168Z,100482.94
2019-01-24T15:16:07.105Z,100478.94
2019-01-24T15:18:34.063Z,100480.03
2019-01-24T15:21:01.071Z,100489.86
2019-01-24T15:23:28.032Z,100493.91
2019-01-24T15:25:54.965Z,100492.16
2019-01-24T15:28:21.924Z,100498.37
2019-01-24T15:30:48.886Z,100498.37
2019-01-24T15:33:15.817Z,100495.31
2019-01-24T15:35:42.789Z,100506.78
2019-01-24T15:38:09.707Z,100510.44
2019-01-24T15:40:37.817Z,100505.94
2019-01-24T15:43:05.204Z,100499.35
2019-01-24T15:45:32.284Z,100510.02
2019-01-24T15:47:59.244Z,100520.48
2019-01-24T15:50:26.252Z,100510.70
2019-01-24T15:52:53.235Z,100512.39
2019-01-24T15:55:20.220Z,100512.64
2019-01-24T15:57:47.278Z,100520.45
2019-01-24T16:00:19.467Z,100524.26
2019-01-24T16:02:46.416Z,100521.77
2019-01-24T16:05:13.874Z,100522.03
2019-01-24T16:07:40.839Z,100524.38
2019-01-24T16:10:09.657Z,100526.84
2019-01-24T16:12:36.667Z,100513.27
2019-01-24T16:15:05.650Z,100508.33
2019-01-24T16:17:32.685Z,100515.91
2019-01-24T16:19:59.791Z,100522.63
2019-01-24T16:22:26.713Z,100537.07
2019-01-24T16:24:53.719Z,100536.92
2019-01-24T16:27:20.644Z,100535.84
2019-01-24T16:29:47.613Z,100497.80
2019-01-24T16:32:14.545Z,100543.11
2019-01-24T16:34:41.542Z,100544.14
2019-01-24T16:37:08.454Z,100545.16
2019-01-24T16:39:35.555Z,100548.25
2019-01-24T16:42:02.482Z,100549.97
2019-01-24T16:44:29.445Z,100554.43
2019-01-24T16:46:56.444Z,100556.30
2019-01-24T16:49:24.174Z,100560.89
2019-01-24T16:51:51.080Z,100561.75
2019-01-24T16:54:18.049Z,100553.27
2019-01-24T16:56:44.976Z,100554.09
2019-01-24T16:59:11.974Z,100560.80
2019-01-24T17:01:38.933Z,100562.94
2019-01-24T17:04:05.930Z,100565.42
2019-01-24T17:06:32.899Z,100561.41
2019-01-24T17:08:59.806Z,100558.95
2019-01-24T17:11:26.799Z,100564.86
2019-01-24T17:13:53.817Z,100574.40
2019-01-24T17:16:20.765Z,100564.27
2019-01-24T17:18:47.691Z,100567.05
2019-01-24T17:21:14.639Z,100569.44
2019-01-24T17:23:41.560Z,100566.88
2019-01-24T17:26:08.662Z,100566.37
2019-01-24T17:28:35.584Z,100573.58
2019-01-24T17:31:02.566Z,100571.16
2019-01-24T17:33:29.674Z,100574.27
2019-01-24T17:35:56.635Z,100580.28
2019-01-24T17:38:24.119Z,100582.11
2019-01-24T17:40:51.241Z,100584.06
2019-01-24T17:43:18.173Z,100586.30
2019-01-24T17:45:45.169Z,100590.67
2019-01-24T17:48:12.124Z,100588.45
2019-01-24T17:50:39.095Z,100591.11
2019-01-24T17:53:06.031Z,100589.37
2019-01-24T17:55:35.501Z,100596.28
2019-01-24T17:58:03.165Z,100599.99
2019-01-24T18:00:32.907Z,100602.74
2019-01-24T18:02:59.959Z,100602.67
2019-01-24T18:05:26.985Z,100613.65
2019-01-24T18:07:54.018Z,100620.09
2019-01-24T18:10:22.609Z,100623.47
2019-01-24T18:12:49.581Z,100622.32
2019-01-24T18:15:19.052Z,100631.91
2019-01-24T18:17:46.207Z,100623.55
2019-01-24T18:20:18.335Z,100627.89
2019-01-24T18:22:44.597Z,100632.31
2019-01-24T18:25:11.513Z,100641.97
2019-01-24T18:27:38.497Z,100640.21
2019-01-24T18:30:07.834Z,100642.45
2019-01-24T18:32:34.826Z,100644.91
2019-01-24T18:35:01.778Z,100646.88
2019-01-24T18:37:29.092Z,100641.36
2019-01-24T18:39:56.633Z,100641.91
2019-01-24T18:42:25.205Z,100642.82
2019-01-24T18:44:52.652Z,100645.93
2019-01-24T18:47:20.890Z,100647.02
2019-01-24T18:49:48.240Z,100655.34
2019-01-24T18:52:15.230Z,100652.38
2019-01-24T18:54:42.256Z,100657.59
2019-01-24T18:57:09.215Z,100661.22
2019-01-24T18:59:36.159Z,100660.41
2019-01-24T19:02:03.300Z,100664.66
2019-01-24T19:04:30.283Z,100666.89
2019-01-24T19:06:57.607Z,100665.64
2019-01-24T19:09:24.782Z,100669.25
2019-01-24T19:11:51.826Z,100664.59
2019-01-24T19:14:18.888Z,100664.84
2019-01-24T19:16:45.825Z,100668.94
2019-01-24T19:19:13.318Z,100676.70
2019-01-24T19:21:40.411Z,100677.22
2019-01-24T19:24:07.314Z,100685.78
2019-01-24T19:26:34.221Z,100685.78
2019-01-24T19:29:01.169Z,100687.50
2019-01-24T19:31:28.214Z,100683.98
2019-01-24T19:33:55.153Z,100695.52
2019-01-24T19:36:22.074Z,100698.63
2019-01-24T19:38:53.002Z,100647.30
2019-01-24T19:41:17.915Z,100696.55
2019-01-24T19:43:44.967Z,100695.88
2019-01-24T19:46:11.890Z,100692.91
2019-01-24T19:48:38.855Z,100696.52
2019-01-24T19:51:05.797Z,100696.80
2019-01-24T19:53:33.651Z,100701.94
2019-01-24T19:56:01.846Z,100700.89
2019-01-24T19:58:30.293Z,100704.10
2019-01-24T20:00:58.095Z,100700.77
2019-01-24T20:03:25.486Z,100699.07
2019-01-24T20:05:53.638Z,100691.91
2019-01-24T20:08:20.802Z,100688.84
2019-01-24T20:10:47.756Z,100696.87
2019-01-24T20:13:14.718Z,100702.46
2019-01-24T20:15:41.626Z,100701.63
2019-01-24T20:18:08.651Z,100701.53
2019-01-24T20:20:35.823Z,100697.67
2019-01-24T20:23:03.203Z,100692.36
2019-01-24T20:25:31.328Z,100705.02
2019-01-24T20:27:58.283Z,100703.64
2019-01-24T20:30:26.799Z,100704.44
2019-01-24T20:35:49.288Z,100698.63
2019-01-24T20:38:16.242Z,100707.83
2019-01-24T20:40:43.175Z,100713.77
2019-01-24T20:43:11.080Z,100706.73
2019-01-24T20:45:38.564Z,100703.00
2019-01-24T20:48:05.514Z,100703.61
2019-01-24T20:50:32.479Z,100710.77
2019-01-24T20:52:59.413Z,100708.56
2019-01-24T20:55:26.372Z,100706.39
2019-01-24T20:57:53.305Z,100705.81
2019-01-24T21:00:21.182Z,100702.69
2019-01-24T21:02:48.241Z,100706.30
2019-01-24T21:05:18.463Z,100710.77
2019-01-24T21:07:45.707Z,100695.87
2019-01-24T21:10:15.262Z,100693.09
2019-01-24T21:12:42.308Z,100696.77
2019-01-24T21:15:10.583Z,100700.89
2019-01-24T21:17:37.533Z,100702.26
2019-01-24T21:20:06.499Z,100702.42
2019-01-24T21:22:33.452Z,100705.95
2019-01-24T21:25:00.424Z,100710.55
2019-01-24T21:27:28.881Z,100717.30
2019-01-24T21:29:55.984Z,100722.27
2019-01-24T21:32:22.935Z,100716.03
2019-01-24T21:34:49.918Z,100717.48
2019-01-24T21:37:16.937Z,100717.33
2019-01-24T21:39:43.976Z,100718.28
2019-01-24T21:42:10.874Z,100709.97
2019-01-24T21:44:37.851Z,100718.06
2019-01-24T21:47:04.900Z,100724.77
2019-01-24T21:49:31.855Z,100723.48
2019-01-24T21:51:58.799Z,100724.00
2019-01-24T21:54:25.820Z,100719.21
2019-01-24T21:56:52.877Z,100713.66
2019-01-24T21:59:19.842Z,100710.61
2019-01-24T22:01:46.770Z,100712.69
2019-01-24T22:04:13.709Z,100723.37
2019-01-24T22:06:40.674Z,100719.66
2019-01-24T22:09:08.380Z,100717.07
2019-01-24T22:11:35.283Z,100716.78
2019-01-24T22:14:02.212Z,100721.83
2019-01-24T22:16:29.154Z,100720.81
2019-01-24T22:18:56.095Z,100721.58
2019-01-24T22:21:23.095Z,100724.20
2019-01-24T22:23:50.181Z,100723.88
2019-01-24T22:26:17.131Z,100720.06
2019-01-24T22:28:44.140Z,100721.70
2019-01-24T22:31:11.090Z,100711.66
2019-01-24T22:33:38.017Z,100713.33
2019-01-24T22:36:05.167Z,100717.23
2019-01-24T22:38:32.058Z,100719.14
2019-01-24T22:40:59.011Z,100714.80
2019-01-24T22:43:25.923Z,100716.97
2019-01-24T22:45:52.876Z,100717.51
2019-01-24T22:48:19.805Z,100715.19
2019-01-24T22:50:46.891Z,100730.33
2019-01-24T22:53:13.826Z,100729.02
2019-01-24T22:55:40.760Z,100734.86
2019-01-24T22:58:07.667Z,100733.30
2019-01-24T23:01:37.690Z,100738.26
2019-01-24T23:04:11.014Z,100734.43
2019-01-24T23:06:37.995Z,100735.16
2019-01-24T23:09:08.734Z,100730.30
2019-01-24T23:11:35.723Z,100735.52
2019-01-24T23:14:02.631Z,100737.78
2019-01-24T23:16:29.585Z,100733.05
2019-01-24T23:18:56.464Z,100728.16
2019-01-24T23:21:23.525Z,100734.69
2019-01-24T23:23:50.476Z,100733.69
2019-01-24T23:26:17.784Z,100723.66
2019-01-24T23:28:44.714Z,100724.07
2019-01-24T23:31:11.661Z,100727.81
2019-01-24T23:33:38.566Z,100726.66
2019-01-24T23:36:05.723Z,100728.96
2019-01-24T23:38:32.633Z,100732.95
2019-01-24T23:40:59.678Z,100738.42
2019-01-24T23:43:26.630Z,100743.89
2019-01-24T23:45:53.507Z,100744.63
2019-01-24T23:48:20.418Z,100744.91
2019-01-24T23:50:47.358Z,100755.05
2019-01-24T23:53:14.273Z,100755.23
2019-01-24T23:55:41.244Z,100750.54
2019-01-24T23:58:08.362Z,100755.45
